Aegean Orion — SVA2487 — position and weather

sailwx.info

Track history (hours):
 
Tides and Currents Weather Stations Pressure Air Temp Water Temp Dewpoint Dewpoint Depression Visibility Wind Speed Wind Dir Waves Ship Positions

Aegean Orion

Last reported at 2014-Dec-19 08:24 UTC. Time now 2014-Dec-20 12:12 UTC.
Position N 38°02' E 023°32'.

Length 52 m; draft 2.4 m.

Type: Ship. MMSI: 239550200.

Date/timePositionNaut miles runAvg speedWind from/ knotsBaromVisibWave heightAir tempDewpointWater temp
2014-Dec-19 08:24N 38°02' E 023°32'0 0.0
2014-Dec-19 07:33N 38°02' E 023°32'0 0.0
2014-Dec-19 06:34N 38°02' E 023°32'0 0.0
2014-Dec-18 16:34N 38°02' E 023°32'5 4.8
2014-Dec-18 15:33N 37°58' E 023°33'4 4.3
2014-Dec-18 14:33N 37°57' E 023°38'0 0.0
2014-Dec-18 13:33N 37°57' E 023°38'1 0.8
2014-Dec-18 12:34N 37°56' E 023°37'0 0.0
2014-Dec-18 11:33N 37°56' E 023°37'0 0.0
2014-Dec-18 10:34N 37°56' E 023°37'0 0.0
2014-Dec-18 09:34N 37°56' E 023°37'3 2.7
2014-Dec-18 08:33N 37°57' E 023°34'1 0.6
2014-Dec-18 07:34N 37°57' E 023°33'5 5.0
2014-Dec-18 06:33N 38°02' E 023°32'0 0.0
2014-Dec-18 05:33N 38°02' E 023°32'0 0.0
2014-Dec-18 04:33N 38°02' E 023°32'0 0.0
2014-Dec-18 03:33N 38°02' E 023°32'0 0.0
2014-Dec-18 02:33N 38°02' E 023°32'0 0.0
2014-Dec-18 01:34N 38°02' E 023°32'0 0.0
2014-Dec-18 00:34N 38°02' E 023°32'0 0.0
2014-Dec-17 23:33N 38°02' E 023°32'0 0.0
2014-Dec-17 22:33N 38°02' E 023°32'0 0.0
2014-Dec-17 21:34N 38°02' E 023°32'0 0.0
2014-Dec-17 20:34N 38°02' E 023°32'0 0.0
2014-Dec-17 19:33N 38°02' E 023°32'0 0.0
2014-Dec-17 18:34N 38°02' E 023°32'0 0.0
2014-Dec-17 17:34N 38°02' E 023°32'0 0.0
2014-Dec-17 16:34N 38°02' E 023°32'0 0.1
2014-Dec-17 12:15N 38°02' E 023°32'0 0.0
2014-Dec-17 11:06N 38°02' E 023°32'1 1.5
2014-Dec-17 10:33N 38°02' E 023°31'0 0.1
2014-Dec-17 09:33N 38°02' E 023°31'0 0.0
2014-Dec-17 08:22N 38°02' E 023°31'0 0.0
2014-Dec-17 07:33N 38°02' E 023°31'0 0.0
2014-Dec-17 06:33N 38°02' E 023°31'0 0.5
2014-Dec-17 05:33N 38°02' E 023°31'2 0.0
2014-Dec-15 15:33N 38°01' E 023°33'6 5.9
2014-Dec-15 14:34N 37°57' E 023°38'0 0.0
2014-Dec-15 13:33N 37°57' E 023°38'2 2.2
2014-Dec-15 12:33N 37°57' E 023°36'1 0.9
2014-Dec-15 11:34N 37°57' E 023°35'0 0.1
2014-Dec-15 10:33N 37°57' E 023°35'0 0.0
2014-Dec-15 09:33N 37°57' E 023°35'0 0.0
2014-Dec-15 08:34N 37°57' E 023°35'1 1.5
2014-Dec-15 07:34N 37°58' E 023°36'0 0.0
2014-Dec-15 06:33N 37°58' E 023°36'0 0.3
2014-Dec-15 05:34N 37°57' E 023°36'5 5.5
2014-Dec-15 04:33N 38°02' E 023°32'0 0.5
2014-Dec-15 03:33N 38°02' E 023°32'0 0.0
2014-Dec-14 10:34N 38°02' E 023°32'6 5.6
2014-Dec-14 09:34N 37°57' E 023°35'3 2.7
2014-Dec-14 08:33N 37°57' E 023°38'0 0.0
2014-Dec-14 07:34N 37°57' E 023°38'1 0.8
2014-Dec-14 06:34N 37°56' E 023°37'6 6.1
2014-Dec-14 05:34N 38°01' E 023°32'1 0.1
2014-Dec-13 12:11N 38°02' E 023°32'1 1.6
2014-Dec-13 11:33N 38°02' E 023°31'0 0.0
2014-Dec-13 10:33N 38°02' E 023°31'0 0.0
2014-Dec-13 09:32N 38°02' E 023°31'0 0.0
2014-Dec-13 08:33N 38°02' E 023°31'0 0.0
2014-Dec-13 07:33N 38°02' E 023°31'0 0.0
2014-Dec-13 06:33N 38°02' E 023°31'0 0.3
2014-Dec-13 05:34N 38°02' E 023°31'0 0.0
2014-Dec-12 09:24N 38°02' E 023°32'6 7.1
2014-Dec-12 08:32N 37°59' E 023°25'6 5.4
2014-Dec-12 07:30N 37°53' E 023°24'6 6.4
2014-Dec-12 06:33N 37°54' E 023°32'4 4.0
2014-Dec-12 05:33N 37°57' E 023°35'0 0.0
2014-Dec-12 04:33N 37°57' E 023°35'0 0.0
2014-Dec-12 03:33N 37°57' E 023°35'0 0.0
2014-Dec-12 02:34N 37°57' E 023°35'0 0.5
2014-Dec-12 01:34N 37°57' E 023°34'0 0.0
2014-Dec-12 00:33N 37°57' E 023°34'0 0.0
2014-Dec-11 23:33N 37°57' E 023°34'0 0.0
2014-Dec-11 22:33N 37°57' E 023°34'0 0.0
2014-Dec-11 21:33N 37°57' E 023°34'0 0.1
2014-Dec-11 20:33N 37°57' E 023°34'4 3.5
2014-Dec-11 19:34N 37°57' E 023°38'0 0.0
2014-Dec-11 18:33N 37°57' E 023°38'2 2.2
2014-Dec-11 17:33N 37°57' E 023°36'1 1.1
2014-Dec-11 16:34N 37°57' E 023°34'0 0.0
2014-Dec-11 15:34N 37°57' E 023°35'0 0.0
2014-Dec-11 14:34N 37°57' E 023°35'0 0.0
2014-Dec-11 13:34N 37°57' E 023°34'0 0.0
2014-Dec-11 12:34N 37°57' E 023°35'2 2.0
2014-Dec-11 11:33N 37°56' E 023°37'1 0.6
2014-Dec-11 10:34N 37°56' E 023°37'0 0.0
2014-Dec-11 09:34N 37°56' E 023°37'0 0.0
2014-Dec-11 08:33N 37°56' E 023°37'5 5.1
2014-Dec-11 07:34N 37°60' E 023°33'2 0.2
2014-Dec-10 19:28N 38°02' E 023°32'1 1.1
2014-Dec-10 18:33N 38°02' E 023°31'0 0.0
2014-Dec-10 17:33N 38°02' E 023°31'0 0.0
2014-Dec-10 16:32N 38°02' E 023°31'0 0.0
2014-Dec-10 15:33N 38°02' E 023°31'0 0.0
2014-Dec-10 14:33N 38°02' E 023°31'0 0.3
2014-Dec-10 13:33N 38°02' E 023°31'4 4.2
2014-Dec-10 12:33N 37°58' E 023°33'4 4.4
2014-Dec-10 11:33N 37°56' E 023°38'0 0.0
2014-Dec-10 10:33N 37°56' E 023°38'0 0.0
2014-Dec-10 09:33N 37°56' E 023°38'0 0.0
2014-Dec-10 08:33N 37°56' E 023°38'5 4.8
2014-Dec-10 07:33N 37°59' E 023°33'3 3.3
2014-Dec-10 06:33N 38°02' E 023°32'0 0.0
2014-Dec-10 05:33N 38°02' E 023°32'0 0.0
2014-Dec-10 04:33N 38°02' E 023°32'0 0.0
2014-Dec-10 03:33N 38°02' E 023°32'0 0.0
2014-Dec-09 22:33N 38°02' E 023°32'0 0.0
2014-Dec-09 21:33N 38°02' E 023°32'0 0.0
2014-Dec-09 17:03N 38°02' E 023°32'1 2.0
2014-Dec-09 16:33N 38°02' E 023°31'0 0.1
2014-Dec-09 15:32N 38°02' E 023°31'0 0.0
2014-Dec-09 14:33N 38°02' E 023°31'0 0.0
2014-Dec-09 13:33N 38°02' E 023°31'0 0.0
2014-Dec-09 12:33N 38°02' E 023°31'0 0.4
2014-Dec-09 11:33N 38°02' E 023°31'1 0.9
2014-Dec-09 10:33N 38°02' E 023°32'0 0.1
2014-Dec-09 09:33N 38°02' E 023°32'0 0.0
2014-Dec-09 08:33N 38°02' E 023°32'  
Track history (hours):
 
Tides and Currents Weather Stations Pressure Air Temp Water Temp Dewpoint Dewpoint Depression Visibility Wind Speed Wind Dir Waves Ship Positions

Aegean Orion

Last reported at 2014-Dec-19 08:24 UTC. Time now 2014-Dec-20 12:12 UTC.
Position N 38°02' E 023°32'.

Length 52 m; draft 2.4 m.

Type: Ship. MMSI: 239550200.

Date/timePositionNaut miles runAvg speedWind from/ knotsBaromVisibWave heightAir tempDewpointWater temp
2014-Dec-19 08:24N 38°02' E 023°32'0 0.0
2014-Dec-19 07:33N 38°02' E 023°32'0 0.0
2014-Dec-19 06:34N 38°02' E 023°32'0 0.0
2014-Dec-18 16:34N 38°02' E 023°32'5 4.8
2014-Dec-18 15:33N 37°58' E 023°33'4 4.3
2014-Dec-18 14:33N 37°57' E 023°38'0 0.0
2014-Dec-18 13:33N 37°57' E 023°38'1 0.8
2014-Dec-18 12:34N 37°56' E 023°37'0 0.0
2014-Dec-18 11:33N 37°56' E 023°37'0 0.0
2014-Dec-18 10:34N 37°56' E 023°37'0 0.0
2014-Dec-18 09:34N 37°56' E 023°37'3 2.7
2014-Dec-18 08:33N 37°57' E 023°34'1 0.6
2014-Dec-18 07:34N 37°57' E 023°33'5 5.0
2014-Dec-18 06:33N 38°02' E 023°32'0 0.0
2014-Dec-18 05:33N 38°02' E 023°32'0 0.0
2014-Dec-18 04:33N 38°02' E 023°32'0 0.0
2014-Dec-18 03:33N 38°02' E 023°32'0 0.0
2014-Dec-18 02:33N 38°02' E 023°32'0 0.0
2014-Dec-18 01:34N 38°02' E 023°32'0 0.0
2014-Dec-18 00:34N 38°02' E 023°32'0 0.0
2014-Dec-17 23:33N 38°02' E 023°32'0 0.0
2014-Dec-17 22:33N 38°02' E 023°32'0 0.0
2014-Dec-17 21:34N 38°02' E 023°32'0 0.0
2014-Dec-17 20:34N 38°02' E 023°32'0 0.0
2014-Dec-17 19:33N 38°02' E 023°32'0 0.0
2014-Dec-17 18:34N 38°02' E 023°32'0 0.0
2014-Dec-17 17:34N 38°02' E 023°32'0 0.0
2014-Dec-17 16:34N 38°02' E 023°32'0 0.1
2014-Dec-17 12:15N 38°02' E 023°32'0 0.0
2014-Dec-17 11:06N 38°02' E 023°32'1 1.5
2014-Dec-17 10:33N 38°02' E 023°31'0 0.1
2014-Dec-17 09:33N 38°02' E 023°31'0 0.0
2014-Dec-17 08:22N 38°02' E 023°31'0 0.0
2014-Dec-17 07:33N 38°02' E 023°31'0 0.0
2014-Dec-17 06:33N 38°02' E 023°31'0 0.5
2014-Dec-17 05:33N 38°02' E 023°31'2 0.0
2014-Dec-15 15:33N 38°01' E 023°33'6 5.9
2014-Dec-15 14:34N 37°57' E 023°38'0 0.0
2014-Dec-15 13:33N 37°57' E 023°38'2 2.2
2014-Dec-15 12:33N 37°57' E 023°36'1 0.9
2014-Dec-15 11:34N 37°57' E 023°35'0 0.1
2014-Dec-15 10:33N 37°57' E 023°35'0 0.0
2014-Dec-15 09:33N 37°57' E 023°35'0 0.0
2014-Dec-15 08:34N 37°57' E 023°35'1 1.5
2014-Dec-15 07:34N 37°58' E 023°36'0 0.0
2014-Dec-15 06:33N 37°58' E 023°36'0 0.3
2014-Dec-15 05:34N 37°57' E 023°36'5 5.5
2014-Dec-15 04:33N 38°02' E 023°32'0 0.5
2014-Dec-15 03:33N 38°02' E 023°32'0 0.0
2014-Dec-14 10:34N 38°02' E 023°32'6 5.6
2014-Dec-14 09:34N 37°57' E 023°35'3 2.7
2014-Dec-14 08:33N 37°57' E 023°38'0 0.0
2014-Dec-14 07:34N 37°57' E 023°38'1 0.8
2014-Dec-14 06:34N 37°56' E 023°37'6 6.1
2014-Dec-14 05:34N 38°01' E 023°32'1 0.1
2014-Dec-13 12:11N 38°02' E 023°32'1 1.6
2014-Dec-13 11:33N 38°02' E 023°31'0 0.0
2014-Dec-13 10:33N 38°02' E 023°31'0 0.0
2014-Dec-13 09:32N 38°02' E 023°31'0 0.0
2014-Dec-13 08:33N 38°02' E 023°31'0 0.0
2014-Dec-13 07:33N 38°02' E 023°31'0 0.0
2014-Dec-13 06:33N 38°02' E 023°31'0 0.3
2014-Dec-13 05:34N 38°02' E 023°31'0 0.0
2014-Dec-12 09:24N 38°02' E 023°32'6 7.1
2014-Dec-12 08:32N 37°59' E 023°25'6 5.4
2014-Dec-12 07:30N 37°53' E 023°24'6 6.4
2014-Dec-12 06:33N 37°54' E 023°32'4 4.0
2014-Dec-12 05:33N 37°57' E 023°35'0 0.0
2014-Dec-12 04:33N 37°57' E 023°35'0 0.0
2014-Dec-12 03:33N 37°57' E 023°35'0 0.0
2014-Dec-12 02:34N 37°57' E 023°35'0 0.5
2014-Dec-12 01:34N 37°57' E 023°34'0 0.0
2014-Dec-12 00:33N 37°57' E 023°34'0 0.0
2014-Dec-11 23:33N 37°57' E 023°34'0 0.0
2014-Dec-11 22:33N 37°57' E 023°34'0 0.0
2014-Dec-11 21:33N 37°57' E 023°34'0 0.1
2014-Dec-11 20:33N 37°57' E 023°34'4 3.5
2014-Dec-11 19:34N 37°57' E 023°38'0 0.0
2014-Dec-11 18:33N 37°57' E 023°38'2 2.2
2014-Dec-11 17:33N 37°57' E 023°36'1 1.1
2014-Dec-11 16:34N 37°57' E 023°34'0 0.0
2014-Dec-11 15:34N 37°57' E 023°35'0 0.0
2014-Dec-11 14:34N 37°57' E 023°35'0 0.0
2014-Dec-11 13:34N 37°57' E 023°34'0 0.0
2014-Dec-11 12:34N 37°57' E 023°35'2 2.0
2014-Dec-11 11:33N 37°56' E 023°37'1 0.6
2014-Dec-11 10:34N 37°56' E 023°37'0 0.0
2014-Dec-11 09:34N 37°56' E 023°37'0 0.0
2014-Dec-11 08:33N 37°56' E 023°37'5 5.1
2014-Dec-11 07:34N 37°60' E 023°33'2 0.2
2014-Dec-10 19:28N 38°02' E 023°32'1 1.1
2014-Dec-10 18:33N 38°02' E 023°31'0 0.0
2014-Dec-10 17:33N 38°02' E 023°31'0 0.0
2014-Dec-10 16:32N 38°02' E 023°31'0 0.0
2014-Dec-10 15:33N 38°02' E 023°31'0 0.0
2014-Dec-10 14:33N 38°02' E 023°31'0 0.3
2014-Dec-10 13:33N 38°02' E 023°31'4 4.2
2014-Dec-10 12:33N 37°58' E 023°33'4 4.4
2014-Dec-10 11:33N 37°56' E 023°38'0 0.0
2014-Dec-10 10:33N 37°56' E 023°38'0 0.0
2014-Dec-10 09:33N 37°56' E 023°38'0 0.0
2014-Dec-10 08:33N 37°56' E 023°38'5 4.8
2014-Dec-10 07:33N 37°59' E 023°33'3 3.3
2014-Dec-10 06:33N 38°02' E 023°32'0 0.0
2014-Dec-10 05:33N 38°02' E 023°32'0 0.0
2014-Dec-10 04:33N 38°02' E 023°32'0 0.0
2014-Dec-10 03:33N 38°02' E 023°32'0 0.0
2014-Dec-09 22:33N 38°02' E 023°32'0 0.0
2014-Dec-09 21:33N 38°02' E 023°32'0 0.0
2014-Dec-09 17:03N 38°02' E 023°32'1 2.0
2014-Dec-09 16:33N 38°02' E 023°31'0 0.1
2014-Dec-09 15:32N 38°02' E 023°31'0 0.0
2014-Dec-09 14:33N 38°02' E 023°31'0 0.0
2014-Dec-09 13:33N 38°02' E 023°31'0 0.0
2014-Dec-09 12:33N 38°02' E 023°31'0 0.4
2014-Dec-09 11:33N 38°02' E 023°31'1 0.9
2014-Dec-09 10:33N 38°02' E 023°32'0 0.1
2014-Dec-09 09:33N 38°02' E 023°32'0 0.0
2014-Dec-09 08:33N 38°02' E 023°32'  

Dump ship's entire track history